createdAt,value
2022-12-27T00:00:04.796Z,13.96
2022-12-27T00:00:14.745Z,13.98
2022-12-27T00:00:24.774Z,13.99
2022-12-27T00:00:34.775Z,13.98
2022-12-27T00:00:44.827Z,13.96
2022-12-27T00:00:54.799Z,13.96
2022-12-27T00:01:04.766Z,13.98
2022-12-27T00:01:14.748Z,13.98
2022-12-27T00:01:24.742Z,13.98
2022-12-27T00:01:34.779Z,13.98
2022-12-27T00:01:44.809Z,13.98
2022-12-27T00:01:54.759Z,13.98
2022-12-27T00:02:04.801Z,13.98
2022-12-27T00:02:14.779Z,13.98
2022-12-27T00:02:24.830Z,13.96
2022-12-27T00:02:34.770Z,13.98
2022-12-27T00:02:44.769Z,13.96
2022-12-27T00:02:54.798Z,13.96
2022-12-27T00:03:04.793Z,13.98
2022-12-27T00:03:14.838Z,13.96
2022-12-27T00:03:24.754Z,13.96
2022-12-27T00:03:34.800Z,13.98
2022-12-27T00:03:44.755Z,13.98
2022-12-27T00:03:54.755Z,13.96
2022-12-27T00:04:04.752Z,13.98
2022-12-27T00:04:14.765Z,13.96
2022-12-27T00:04:24.755Z,13.96
2022-12-27T00:04:34.800Z,13.98
2022-12-27T00:04:44.786Z,13.98
2022-12-27T00:04:54.758Z,13.96
2022-12-27T00:05:04.769Z,13.98
2022-12-27T00:05:14.779Z,13.98
2022-12-27T00:05:24.762Z,13.96
2022-12-27T00:05:34.777Z,13.96
2022-12-27T00:05:44.763Z,13.96
2022-12-27T00:05:54.763Z,13.96
2022-12-27T00:06:04.761Z,13.98
2022-12-27T00:06:14.766Z,13.98
2022-12-27T00:06:24.765Z,13.98
2022-12-27T00:06:34.766Z,13.98
2022-12-27T00:06:44.776Z,13.98
2022-12-27T00:06:54.772Z,13.96
2022-12-27T00:07:04.801Z,13.98
2022-12-27T00:07:14.766Z,13.96
2022-12-27T00:07:24.769Z,13.96
2022-12-27T00:07:34.821Z,13.98
2022-12-27T00:07:44.771Z,13.98
2022-12-27T00:07:54.771Z,13.98
2022-12-27T00:08:04.817Z,13.98
2022-12-27T00:08:14.771Z,13.98
2022-12-27T00:08:24.779Z,13.96
2022-12-27T00:08:34.803Z,13.99
2022-12-27T00:08:44.772Z,13.98
2022-12-27T00:08:54.774Z,13.96
2022-12-27T00:09:04.810Z,13.98
2022-12-27T00:09:14.810Z,13.98
2022-12-27T00:09:24.773Z,13.98
2022-12-27T00:09:34.815Z,13.98
2022-12-27T00:09:44.777Z,13.96
2022-12-27T00:09:54.775Z,13.96
2022-12-27T00:10:04.810Z,13.98
2022-12-27T00:10:14.780Z,13.96
2022-12-27T00:10:24.776Z,13.96
2022-12-27T00:10:34.873Z,13.98
2022-12-27T00:10:44.778Z,13.98
2022-12-27T00:10:54.783Z,13.96
2022-12-27T00:11:04.823Z,13.98
2022-12-27T00:11:14.787Z,13.96
2022-12-27T00:11:24.783Z,13.96
2022-12-27T00:11:34.799Z,13.96
2022-12-27T00:11:44.787Z,13.96
2022-12-27T00:11:59.848Z,13.96
2022-12-27T00:12:05.795Z,13.96
2022-12-27T00:12:14.789Z,13.96
2022-12-27T00:12:24.786Z,13.98
2022-12-27T00:12:34.834Z,13.96
2022-12-27T00:12:44.788Z,13.98
2022-12-27T00:12:54.797Z,13.96
2022-12-27T00:13:04.838Z,13.98
2022-12-27T00:13:14.794Z,13.98
2022-12-27T00:13:24.793Z,13.96
2022-12-27T00:13:34.819Z,13.96
2022-12-27T00:13:44.788Z,13.98
2022-12-27T00:13:54.804Z,13.96
2022-12-27T00:14:04.831Z,13.96
2022-12-27T00:14:14.803Z,13.98
2022-12-27T00:14:24.800Z,13.96
2022-12-27T00:14:34.799Z,13.96
2022-12-27T00:14:44.797Z,13.96
2022-12-27T00:14:54.797Z,13.94
2022-12-27T00:15:04.803Z,13.94
2022-12-27T00:15:14.799Z,13.96
2022-12-27T00:15:24.803Z,13.96
2022-12-27T00:15:34.836Z,13.94
2022-12-27T00:15:44.807Z,13.96
2022-12-27T00:15:54.808Z,13.96
2022-12-27T00:16:04.854Z,13.96
2022-12-27T00:16:14.839Z,13.96
2022-12-27T00:16:24.945Z,13.94
2022-12-27T00:16:34.870Z,13.96
2022-12-27T00:16:44.846Z,13.94
2022-12-27T00:16:54.809Z,13.96
2022-12-27T00:17:04.826Z,13.96
2022-12-27T00:17:14.808Z,13.96
2022-12-27T00:17:24.810Z,13.96
2022-12-27T00:17:34.812Z,13.96
2022-12-27T00:17:44.818Z,13.94
2022-12-27T00:17:54.813Z,13.96
2022-12-27T00:18:04.817Z,13.94
2022-12-27T00:18:14.820Z,13.94
2022-12-27T00:18:24.825Z,13.94
2022-12-27T00:18:34.850Z,13.94
2022-12-27T00:18:44.815Z,13.96
2022-12-27T00:18:54.819Z,13.96
2022-12-27T00:19:04.826Z,13.96
2022-12-27T00:19:14.823Z,13.96
2022-12-27T00:19:24.834Z,13.98
2022-12-27T00:19:34.855Z,13.96
2022-12-27T00:19:44.820Z,13.96
2022-12-27T00:19:54.824Z,13.96
2022-12-27T00:20:11.066Z,13.96
2022-12-27T00:20:15.828Z,13.94
2022-12-27T00:20:24.847Z,13.94
2022-12-27T00:20:34.870Z,13.96
2022-12-27T00:20:44.833Z,13.96
2022-12-27T00:20:54.825Z,13.96
2022-12-27T00:21:04.822Z,13.94
2022-12-27T00:21:14.826Z,13.96
2022-12-27T00:21:24.832Z,13.96
2022-12-27T00:21:34.852Z,13.94
2022-12-27T00:21:44.828Z,13.96
2022-12-27T00:21:54.839Z,13.96
2022-12-27T00:22:04.835Z,13.96
2022-12-27T00:22:14.830Z,13.94
2022-12-27T00:22:24.835Z,13.98
2022-12-27T00:22:34.845Z,13.94
2022-12-27T00:22:44.831Z,13.94
2022-12-27T00:22:54.833Z,13.94
2022-12-27T00:23:04.827Z,13.94
2022-12-27T00:23:14.840Z,13.96
2022-12-27T00:23:24.824Z,13.94
2022-12-27T00:23:34.834Z,13.96
2022-12-27T00:23:44.837Z,13.96
2022-12-27T00:23:54.830Z,13.96
2022-12-27T00:24:04.854Z,13.94
2022-12-27T00:24:14.833Z,13.94
2022-12-27T00:24:24.853Z,13.96
2022-12-27T00:24:34.842Z,13.94
2022-12-27T00:24:44.836Z,13.96
2022-12-27T00:24:54.840Z,13.96
2022-12-27T00:25:04.879Z,13.96
2022-12-27T00:25:14.839Z,13.94
2022-12-27T00:25:24.838Z,13.96
2022-12-27T00:25:34.850Z,13.94
2022-12-27T00:25:44.841Z,13.96
2022-12-27T00:25:54.845Z,13.96
2022-12-27T00:26:04.841Z,13.94
2022-12-27T00:26:14.859Z,13.96
2022-12-27T00:26:24.847Z,13.96
2022-12-27T00:26:34.840Z,13.96
2022-12-27T00:26:44.851Z,13.96
2022-12-27T00:26:54.827Z,13.96
2022-12-27T00:27:04.903Z,13.96
2022-12-27T00:27:14.824Z,13.96
2022-12-27T00:27:24.847Z,13.96
2022-12-27T00:27:34.886Z,13.96
2022-12-27T00:27:44.846Z,13.94
2022-12-27T00:27:54.851Z,13.96
2022-12-27T00:28:04.848Z,13.94
2022-12-27T00:28:14.851Z,13.98
2022-12-27T00:28:24.881Z,13.94
2022-12-27T00:28:34.861Z,13.94
2022-12-27T00:28:44.844Z,13.94
2022-12-27T00:28:54.851Z,13.98
2022-12-27T00:29:04.864Z,13.96
2022-12-27T00:29:14.829Z,13.96
2022-12-27T00:29:24.857Z,13.96
2022-12-27T00:29:34.883Z,13.96
2022-12-27T00:29:44.853Z,13.96
2022-12-27T00:29:54.854Z,13.94
2022-12-27T00:30:04.874Z,13.96
2022-12-27T00:30:14.863Z,13.93
2022-12-27T00:30:24.858Z,13.94
2022-12-27T00:30:34.857Z,13.94
2022-12-27T00:30:44.867Z,13.94
2022-12-27T00:30:54.870Z,13.94
2022-12-27T00:31:04.862Z,13.96
2022-12-27T00:31:14.905Z,13.96
2022-12-27T00:31:24.902Z,13.96
2022-12-27T00:31:34.899Z,13.94
2022-12-27T00:31:44.900Z,13.96
2022-12-27T00:31:54.959Z,13.96
2022-12-27T00:32:04.921Z,13.94
2022-12-27T00:32:14.916Z,13.94
2022-12-27T00:32:24.866Z,13.93
2022-12-27T00:32:34.868Z,13.98
2022-12-27T00:32:44.871Z,13.94
2022-12-27T00:32:54.869Z,13.93
2022-12-27T00:33:04.872Z,13.96
2022-12-27T00:33:14.921Z,13.94
2022-12-27T00:33:24.870Z,13.94
2022-12-27T00:33:34.876Z,13.94
2022-12-27T00:33:44.888Z,13.94
2022-12-27T00:33:54.878Z,13.94
2022-12-27T00:34:04.905Z,13.94
2022-12-27T00:34:14.877Z,13.96
2022-12-27T00:34:24.876Z,13.94
2022-12-27T00:34:34.856Z,13.96
2022-12-27T00:34:44.879Z,13.96
2022-12-27T00:34:54.878Z,13.96
2022-12-27T00:35:04.910Z,13.96
2022-12-27T00:35:14.873Z,13.96
2022-12-27T00:35:24.880Z,13.93
2022-12-27T00:35:34.914Z,13.93
2022-12-27T00:35:44.880Z,13.94
2022-12-27T00:35:54.881Z,13.94
2022-12-27T00:36:04.882Z,13.94
2022-12-27T00:36:14.906Z,13.94
2022-12-27T00:36:24.882Z,13.94
2022-12-27T00:36:34.903Z,13.96
2022-12-27T00:36:44.883Z,13.94
2022-12-27T00:36:54.882Z,13.94
2022-12-27T00:37:04.882Z,13.94
2022-12-27T00:37:14.887Z,13.96
2022-12-27T00:37:24.874Z,13.94
2022-12-27T00:37:34.896Z,13.94
2022-12-27T00:37:44.885Z,13.96
2022-12-27T00:37:54.909Z,13.96
2022-12-27T00:38:04.928Z,13.94
2022-12-27T00:38:14.898Z,13.96
2022-12-27T00:38:24.873Z,13.96
2022-12-27T00:38:34.919Z,13.94
2022-12-27T00:38:44.895Z,13.96
2022-12-27T00:38:54.889Z,13.93
2022-12-27T00:39:04.920Z,13.94
2022-12-27T00:39:14.900Z,13.96
2022-12-27T00:39:24.894Z,13.94
2022-12-27T00:39:34.898Z,13.94
2022-12-27T00:39:44.897Z,13.94
2022-12-27T00:39:54.892Z,13.94
2022-12-27T00:40:05.011Z,13.94
2022-12-27T00:40:14.900Z,13.94
2022-12-27T00:40:24.894Z,13.94
2022-12-27T00:40:34.943Z,13.93
2022-12-27T00:40:44.896Z,13.94
2022-12-27T00:40:54.905Z,13.94
2022-12-27T00:41:04.924Z,13.93
2022-12-27T00:41:14.898Z,13.93
2022-12-27T00:41:24.899Z,13.93
2022-12-27T00:41:34.915Z,13.94
2022-12-27T00:41:44.904Z,13.93
2022-12-27T00:41:54.900Z,13.94
2022-12-27T00:42:04.932Z,13.93
2022-12-27T00:42:14.899Z,13.94
2022-12-27T00:42:24.900Z,13.94
2022-12-27T00:42:34.959Z,13.91
2022-12-27T00:42:44.903Z,13.94
2022-12-27T00:42:54.902Z,13.93
2022-12-27T00:43:04.903Z,13.93
2022-12-27T00:43:14.907Z,13.93
2022-12-27T00:43:24.907Z,13.93
2022-12-27T00:43:34.988Z,13.93
2022-12-27T00:43:44.907Z,13.93
2022-12-27T00:43:54.909Z,13.93
2022-12-27T00:44:04.931Z,13.94
2022-12-27T00:44:14.921Z,13.94
2022-12-27T00:44:24.905Z,13.93
2022-12-27T00:44:34.942Z,13.93
2022-12-27T00:44:44.909Z,13.93
2022-12-27T00:44:54.918Z,13.94
2022-12-27T00:45:04.957Z,13.94
2022-12-27T00:45:14.915Z,13.91
2022-12-27T00:45:24.964Z,13.94
2022-12-27T00:45:34.998Z,13.94
2022-12-27T00:45:44.947Z,13.93
2022-12-27T00:45:54.957Z,13.94
2022-12-27T00:46:04.975Z,13.94
2022-12-27T00:46:14.982Z,13.91
2022-12-27T00:46:24.922Z,13.93
2022-12-27T00:46:34.944Z,13.93
2022-12-27T00:46:44.905Z,13.94
2022-12-27T00:46:54.914Z,13.93
2022-12-27T00:47:04.922Z,13.94
2022-12-27T00:47:14.922Z,13.93
2022-12-27T00:47:24.919Z,13.93
2022-12-27T00:47:35.011Z,13.93
2022-12-27T00:47:44.927Z,13.93
2022-12-27T00:47:54.928Z,13.93
2022-12-27T00:48:04.968Z,13.93
2022-12-27T00:48:14.924Z,13.93
2022-12-27T00:48:24.925Z,13.93
2022-12-27T00:48:34.952Z,13.93
2022-12-27T00:48:44.938Z,13.91
2022-12-27T00:48:54.932Z,13.93
2022-12-27T00:49:04.991Z,13.93
2022-12-27T00:49:14.928Z,13.93
2022-12-27T00:49:24.946Z,13.93
2022-12-27T00:49:34.925Z,13.91
2022-12-27T00:49:44.928Z,13.91
2022-12-27T00:49:54.929Z,13.93
2022-12-27T00:50:04.945Z,13.91
2022-12-27T00:50:14.930Z,13.91
2022-12-27T00:50:24.931Z,13.91
2022-12-27T00:50:34.933Z,13.91
2022-12-27T00:50:44.931Z,13.91
2022-12-27T00:50:54.933Z,13.93
2022-12-27T00:51:04.964Z,13.91
2022-12-27T00:51:14.938Z,13.91
2022-12-27T00:51:24.946Z,13.91
2022-12-27T00:51:34.973Z,13.91
2022-12-27T00:51:44.939Z,13.91
2022-12-27T00:51:54.937Z,13.93
2022-12-27T00:52:04.996Z,13.91
2022-12-27T00:52:14.937Z,13.91
2022-12-27T00:52:24.948Z,13.91
2022-12-27T00:52:34.947Z,13.91
2022-12-27T00:52:44.963Z,13.93
2022-12-27T00:52:54.944Z,13.90
2022-12-27T00:53:04.979Z,13.93
2022-12-27T00:53:14.948Z,13.91
2022-12-27T00:53:24.942Z,13.91
2022-12-27T00:53:34.943Z,13.91
2022-12-27T00:53:44.946Z,13.90
2022-12-27T00:53:54.957Z,13.91
2022-12-27T00:54:04.944Z,13.91
2022-12-27T00:54:14.930Z,13.91
2022-12-27T00:54:24.945Z,13.91
2022-12-27T00:54:34.991Z,13.91
2022-12-27T00:54:44.948Z,13.91
2022-12-27T00:54:54.947Z,13.90
2022-12-27T00:55:04.950Z,13.90
2022-12-27T00:55:14.958Z,13.90
2022-12-27T00:55:24.953Z,13.91
2022-12-27T00:55:34.985Z,13.93
2022-12-27T00:55:44.951Z,13.90
2022-12-27T00:55:54.958Z,13.91
2022-12-27T00:56:04.953Z,13.90
2022-12-27T00:56:14.958Z,13.90
2022-12-27T00:56:24.955Z,13.90
2022-12-27T00:56:34.960Z,13.91
2022-12-27T00:56:44.965Z,13.90
2022-12-27T00:56:54.960Z,13.90
2022-12-27T00:57:04.963Z,13.90
2022-12-27T00:57:14.956Z,13.90
2022-12-27T00:57:24.975Z,13.91
2022-12-27T00:57:34.963Z,13.91
2022-12-27T00:57:44.967Z,13.90
2022-12-27T00:57:54.971Z,13.91
2022-12-27T00:58:04.964Z,13.88
2022-12-27T00:58:14.961Z,13.90
2022-12-27T00:58:24.979Z,13.91
2022-12-27T00:58:39.902Z,13.90
2022-12-27T00:58:45.982Z,13.91
2022-12-27T00:58:54.989Z,13.90
2022-12-27T00:59:04.966Z,13.88
2022-12-27T00:59:14.972Z,13.90
2022-12-27T00:59:24.983Z,13.90
2022-12-27T00:59:34.964Z,13.90
2022-12-27T00:59:44.989Z,13.88
2022-12-27T00:59:54.971Z,13.90
2022-12-27T01:00:10.040Z,13.90
2022-12-27T01:00:15.965Z,13.88
2022-12-27T01:00:24.966Z,13.90
2022-12-27T01:00:34.984Z,13.88
2022-12-27T01:00:45.024Z,13.90
2022-12-27T01:00:55.008Z,13.90
2022-12-27T01:01:05.029Z,13.90
2022-12-27T01:01:15.070Z,13.90
2022-12-27T01:01:25.105Z,13.88
2022-12-27T01:01:35.119Z,13.88
2022-12-27T01:01:45.079Z,13.90
2022-12-27T01:01:55.083Z,13.88
2022-12-27T01:02:05.020Z,13.88
2022-12-27T01:02:15.009Z,13.90
2022-12-27T01:02:25.045Z,13.90
2022-12-27T01:02:34.998Z,13.88
2022-12-27T01:02:44.979Z,13.88
2022-12-27T01:02:54.975Z,13.88
2022-12-27T01:03:04.982Z,13.88
2022-12-27T01:03:14.982Z,13.88
2022-12-27T01:03:25.011Z,13.88
2022-12-27T01:03:35.021Z,13.87
2022-12-27T01:03:45.035Z,13.88
2022-12-27T01:03:55.004Z,13.88
2022-12-27T01:04:05.056Z,13.88
2022-12-27T01:04:14.996Z,13.90
2022-12-27T01:04:24.990Z,13.88
2022-12-27T01:04:35.009Z,13.88
2022-12-27T01:04:44.985Z,13.90
2022-12-27T01:04:55.021Z,13.90
2022-12-27T01:05:04.981Z,13.88
2022-12-27T01:05:14.991Z,13.90
2022-12-27T01:05:24.986Z,13.88
2022-12-27T01:05:34.991Z,13.88
2022-12-27T01:05:44.987Z,13.88
2022-12-27T01:05:55.004Z,13.88
2022-12-27T01:06:04.991Z,13.88
2022-12-27T01:06:15.007Z,13.88
2022-12-27T01:06:24.996Z,13.90
2022-12-27T01:06:34.990Z,13.88
2022-12-27T01:06:44.993Z,13.88
2022-12-27T01:06:54.989Z,13.88
2022-12-27T01:07:05.009Z,13.88
2022-12-27T01:07:15.001Z,13.88
2022-12-27T01:07:24.995Z,13.90
2022-12-27T01:07:35.009Z,13.88
2022-12-27T01:07:44.998Z,13.88
2022-12-27T01:07:54.995Z,13.90
2022-12-27T01:08:04.995Z,13.90
2022-12-27T01:08:14.994Z,13.90
2022-12-27T01:08:24.999Z,13.88
2022-12-27T01:08:35.017Z,13.90
2022-12-27T01:08:45.000Z,13.88
2022-12-27T01:08:55.003Z,13.90
2022-12-27T01:09:04.996Z,13.90
2022-12-27T01:09:15.003Z,13.90
2022-12-27T01:09:25.001Z,13.90
2022-12-27T01:09:34.985Z,13.90
2022-12-27T01:09:45.000Z,13.88
2022-12-27T01:09:55.003Z,13.90
2022-12-27T01:10:05.005Z,13.90
2022-12-27T01:10:15.004Z,13.88
2022-12-27T01:10:25.012Z,13.88
2022-12-27T01:10:35.003Z,13.90
2022-12-27T01:10:45.012Z,13.90
2022-12-27T01:10:55.007Z,13.88
2022-12-27T01:11:05.013Z,13.91
2022-12-27T01:11:15.013Z,13.88
2022-12-27T01:11:25.007Z,13.88
2022-12-27T01:11:35.059Z,13.90
2022-12-27T01:11:45.010Z,13.88
2022-12-27T01:11:55.011Z,13.88
2022-12-27T01:12:05.018Z,13.88
2022-12-27T01:12:15.013Z,13.88
2022-12-27T01:12:25.013Z,13.88
2022-12-27T01:12:35.025Z,13.87
2022-12-27T01:12:45.042Z,13.88
2022-12-27T01:12:55.035Z,13.88
2022-12-27T01:13:05.024Z,13.88
2022-12-27T01:13:15.026Z,13.88
2022-12-27T01:13:25.016Z,13.87
2022-12-27T01:13:35.027Z,13.88
2022-12-27T01:13:45.024Z,13.88
2022-12-27T01:13:55.021Z,13.88
2022-12-27T01:14:05.023Z,13.88
2022-12-27T01:14:15.030Z,13.88
2022-12-27T01:14:25.029Z,13.88
2022-12-27T01:14:35.035Z,13.87
2022-12-27T01:14:45.022Z,13.88
2022-12-27T01:14:55.031Z,13.86
2022-12-27T01:15:05.026Z,13.88
2022-12-27T01:15:15.040Z,13.88
2022-12-27T01:15:25.050Z,13.87
2022-12-27T01:15:35.041Z,13.88
2022-12-27T01:15:45.047Z,13.88
2022-12-27T01:15:55.049Z,13.88
2022-12-27T01:16:05.152Z,13.88
2022-12-27T01:16:15.061Z,13.86
2022-12-27T01:16:25.071Z,13.87
2022-12-27T01:16:35.132Z,13.88
2022-12-27T01:16:45.076Z,13.87
2022-12-27T01:16:55.079Z,13.87
2022-12-27T01:17:05.034Z,13.88
2022-12-27T01:17:15.037Z,13.87
2022-12-27T01:17:25.031Z,13.87
2022-12-27T01:17:35.034Z,13.88
2022-12-27T01:17:45.040Z,13.87
2022-12-27T01:17:55.045Z,13.87
2022-12-27T01:18:05.040Z,13.87
2022-12-27T01:18:15.039Z,13.87
2022-12-27T01:18:25.042Z,13.87
2022-12-27T01:18:35.053Z,13.87
2022-12-27T01:18:45.043Z,13.87
2022-12-27T01:18:55.057Z,13.87
2022-12-27T01:19:05.042Z,13.87
2022-12-27T01:19:15.050Z,13.87
2022-12-27T01:19:25.047Z,13.87
2022-12-27T01:19:35.043Z,13.87
2022-12-27T01:19:45.045Z,13.87
2022-12-27T01:19:55.051Z,13.87
2022-12-27T01:20:05.052Z,13.87
2022-12-27T01:20:15.050Z,13.87
2022-12-27T01:20:25.051Z,13.87
2022-12-27T01:20:35.046Z,13.87
2022-12-27T01:20:45.049Z,13.87
2022-12-27T01:20:55.054Z,13.87
2022-12-27T01:21:05.032Z,13.87
2022-12-27T01:21:15.053Z,13.87
2022-12-27T01:21:25.061Z,13.87
2022-12-27T01:21:35.054Z,13.86
2022-12-27T01:21:45.052Z,13.87
2022-12-27T01:21:55.040Z,13.87
2022-12-27T01:22:05.052Z,13.87
2022-12-27T01:22:15.060Z,13.87
2022-12-27T01:22:25.064Z,13.87
2022-12-27T01:22:35.062Z,13.87
2022-12-27T01:22:45.053Z,13.86
2022-12-27T01:22:55.074Z,13.86
2022-12-27T01:23:05.058Z,13.86
2022-12-27T01:23:15.055Z,13.88
2022-12-27T01:23:25.061Z,13.87
2022-12-27T01:23:35.072Z,13.86
2022-12-27T01:23:45.067Z,13.87
2022-12-27T01:23:55.067Z,13.86
2022-12-27T01:24:05.060Z,13.87
2022-12-27T01:24:15.060Z,13.87
2022-12-27T01:24:25.084Z,13.86
2022-12-27T01:24:35.056Z,13.87
2022-12-27T01:24:45.058Z,13.87
2022-12-27T01:24:55.078Z,13.86
2022-12-27T01:25:05.067Z,13.87
2022-12-27T01:25:15.064Z,13.87
2022-12-27T01:25:25.076Z,13.88
2022-12-27T01:25:35.064Z,13.86
2022-12-27T01:25:45.069Z,13.87
2022-12-27T01:25:55.055Z,13.87
2022-12-27T01:26:05.074Z,13.87
2022-12-27T01:26:15.052Z,13.87
2022-12-27T01:26:25.068Z,13.88
2022-12-27T01:26:35.077Z,13.87
2022-12-27T01:26:45.074Z,13.87
2022-12-27T01:26:55.073Z,13.87
2022-12-27T01:27:05.075Z,13.87
2022-12-27T01:27:15.073Z,13.86
2022-12-27T01:27:25.073Z,13.88
2022-12-27T01:27:35.074Z,13.88
2022-12-27T01:27:45.079Z,13.87
2022-12-27T01:27:55.074Z,13.87
2022-12-27T01:28:05.127Z,13.87
2022-12-27T01:28:15.077Z,13.87
2022-12-27T01:28:25.083Z,13.87
2022-12-27T01:28:35.118Z,13.86
2022-12-27T01:28:45.091Z,13.87
2022-12-27T01:28:55.091Z,13.87
2022-12-27T01:29:05.084Z,13.87
2022-12-27T01:29:15.083Z,13.88
2022-12-27T01:29:25.081Z,13.88
2022-12-27T01:29:35.080Z,13.86
2022-12-27T01:29:45.085Z,13.87
2022-12-27T01:29:55.091Z,13.86
2022-12-27T01:30:05.083Z,13.86
2022-12-27T01:30:15.084Z,13.86
2022-12-27T01:30:25.084Z,13.88
2022-12-27T01:30:35.085Z,13.87
2022-12-27T01:30:45.105Z,13.86
2022-12-27T01:30:55.092Z,13.87
2022-12-27T01:31:05.100Z,13.86
2022-12-27T01:31:15.155Z,13.86
2022-12-27T01:31:25.154Z,13.87
2022-12-27T01:31:35.149Z,13.86
2022-12-27T01:31:45.185Z,13.87
2022-12-27T01:31:55.137Z,13.87
2022-12-27T01:32:05.167Z,13.87
2022-12-27T01:32:15.096Z,13.86
2022-12-27T01:32:25.097Z,13.87
2022-12-27T01:32:35.109Z,13.86
2022-12-27T01:32:45.096Z,13.86
2022-12-27T01:32:55.096Z,13.86
2022-12-27T01:33:05.100Z,13.84
2022-12-27T01:33:15.099Z,13.87
2022-12-27T01:33:25.099Z,13.87
2022-12-27T01:33:35.099Z,13.86
2022-12-27T01:33:45.104Z,13.86
2022-12-27T01:33:55.089Z,13.87
2022-12-27T01:34:05.105Z,13.86
2022-12-27T01:34:15.100Z,13.84
2022-12-27T01:34:25.106Z,13.86
2022-12-27T01:34:35.108Z,13.87
2022-12-27T01:34:45.105Z,13.86
2022-12-27T01:34:55.115Z,13.87
2022-12-27T01:35:05.107Z,13.86
2022-12-27T01:35:15.119Z,13.86
2022-12-27T01:35:25.113Z,13.87
2022-12-27T01:35:35.117Z,13.87
2022-12-27T01:35:45.112Z,13.87
2022-12-27T01:35:55.124Z,13.87
2022-12-27T01:36:05.109Z,13.87
2022-12-27T01:36:15.115Z,13.87
2022-12-27T01:36:25.113Z,13.87
2022-12-27T01:36:35.123Z,13.87
2022-12-27T01:36:45.110Z,13.86
2022-12-27T01:36:55.124Z,13.86
2022-12-27T01:37:05.099Z,13.86
2022-12-27T01:37:15.125Z,13.86
2022-12-27T01:37:25.116Z,13.86
2022-12-27T01:37:35.126Z,13.86
2022-12-27T01:37:45.116Z,13.86
2022-12-27T01:37:55.117Z,13.86
2022-12-27T01:38:05.130Z,13.86
2022-12-27T01:38:15.120Z,13.87
2022-12-27T01:38:25.124Z,13.86
2022-12-27T01:38:35.122Z,13.86
2022-12-27T01:38:45.140Z,13.86
2022-12-27T01:38:55.156Z,13.86
2022-12-27T01:39:05.122Z,13.86
2022-12-27T01:39:15.127Z,13.86
2022-12-27T01:39:25.122Z,13.84
2022-12-27T01:39:35.129Z,13.87
2022-12-27T01:39:45.125Z,13.84
2022-12-27T01:39:55.131Z,13.86
2022-12-27T01:40:05.129Z,13.84
2022-12-27T01:40:15.144Z,13.84
2022-12-27T01:40:25.125Z,13.87
2022-12-27T01:40:35.129Z,13.86
2022-12-27T01:40:45.124Z,13.86
2022-12-27T01:40:55.132Z,13.87
2022-12-27T01:41:05.126Z,13.86
2022-12-27T01:41:15.126Z,13.86
2022-12-27T01:41:25.129Z,13.86
2022-12-27T01:41:35.131Z,13.86
2022-12-27T01:41:45.134Z,13.84
2022-12-27T01:41:55.141Z,13.84
2022-12-27T01:42:05.138Z,13.84
2022-12-27T01:42:15.125Z,13.86
2022-12-27T01:42:25.151Z,13.84
2022-12-27T01:42:35.148Z,13.86
2022-12-27T01:42:45.138Z,13.84
2022-12-27T01:42:55.143Z,13.86
2022-12-27T01:43:05.135Z,13.86
2022-12-27T01:43:15.141Z,13.86
2022-12-27T01:43:25.141Z,13.84
2022-12-27T01:43:35.135Z,13.83
2022-12-27T01:43:45.139Z,13.84
2022-12-27T01:43:55.153Z,13.84
2022-12-27T01:44:05.137Z,13.86
2022-12-27T01:44:15.140Z,13.84
2022-12-27T01:44:25.149Z,13.84
2022-12-27T01:44:35.146Z,13.86
2022-12-27T01:44:45.144Z,13.84
2022-12-27T01:44:55.157Z,13.84
2022-12-27T01:45:05.148Z,13.86
2022-12-27T01:45:15.147Z,13.86
2022-12-27T01:45:25.152Z,13.86
2022-12-27T01:45:35.203Z,13.86
2022-12-27T01:45:45.168Z,13.86
2022-12-27T01:45:55.197Z,13.86
2022-12-27T01:46:05.246Z,13.86
2022-12-27T01:46:15.203Z,13.84
2022-12-27T01:46:25.162Z,13.86
2022-12-27T01:46:35.160Z,13.83
2022-12-27T01:46:45.190Z,13.86
2022-12-27T01:46:55.152Z,13.86
2022-12-27T01:47:05.154Z,13.84
2022-12-27T01:47:15.153Z,13.84
2022-12-27T01:47:25.137Z,13.86
2022-12-27T01:47:35.156Z,13.83
2022-12-27T01:47:45.155Z,13.84
2022-12-27T01:47:55.155Z,13.86
2022-12-27T01:48:05.160Z,13.86
2022-12-27T01:48:15.159Z,13.84
2022-12-27T01:48:25.158Z,13.86
2022-12-27T01:48:35.160Z,13.86
2022-12-27T01:48:45.170Z,13.86
2022-12-27T01:48:55.161Z,13.84
2022-12-27T01:49:05.423Z,13.86
2022-12-27T01:49:15.160Z,13.84
2022-12-27T01:49:25.166Z,13.86
2022-12-27T01:49:35.169Z,13.86
2022-12-27T01:49:45.169Z,13.86
2022-12-27T01:49:55.168Z,13.86
2022-12-27T01:50:05.176Z,13.86
2022-12-27T01:50:15.190Z,13.86
2022-12-27T01:50:25.165Z,13.86
2022-12-27T01:50:35.167Z,13.86
2022-12-27T01:50:45.172Z,13.83
2022-12-27T01:50:55.180Z,13.86
2022-12-27T01:51:05.173Z,13.86
2022-12-27T01:51:15.171Z,13.86
2022-12-27T01:51:25.164Z,13.86
2022-12-27T01:51:35.169Z,13.84
2022-12-27T01:51:45.172Z,13.86
2022-12-27T01:51:55.173Z,13.86
2022-12-27T01:52:05.174Z,13.84
2022-12-27T01:52:15.177Z,13.86
2022-12-27T01:52:25.172Z,13.84
2022-12-27T01:52:35.438Z,13.84
2022-12-27T01:52:45.180Z,13.86
2022-12-27T01:52:55.177Z,13.84
2022-12-27T01:53:05.177Z,13.84
2022-12-27T01:53:15.183Z,13.86
2022-12-27T01:53:25.178Z,13.86
2022-12-27T01:53:35.192Z,13.84
2022-12-27T01:53:45.184Z,13.86
2022-12-27T01:53:55.185Z,13.84
2022-12-27T01:54:05.179Z,13.86
2022-12-27T01:54:15.185Z,13.86
2022-12-27T01:54:25.193Z,13.84
2022-12-27T01:54:35.195Z,13.86
2022-12-27T01:54:45.186Z,13.84
2022-12-27T01:54:55.194Z,13.84
2022-12-27T01:55:05.180Z,13.84
2022-12-27T01:55:15.187Z,13.84
2022-12-27T01:55:25.186Z,13.84
2022-12-27T01:55:35.195Z,13.84
2022-12-27T01:55:45.184Z,13.84
2022-12-27T01:55:55.188Z,13.84
2022-12-27T01:56:05.205Z,13.84
2022-12-27T01:56:15.188Z,13.84
2022-12-27T01:56:25.197Z,13.86
2022-12-27T01:56:35.192Z,13.86
2022-12-27T01:56:45.193Z,13.84
2022-12-27T01:56:55.194Z,13.86
2022-12-27T01:57:05.204Z,13.84
2022-12-27T01:57:15.198Z,13.84
2022-12-27T01:57:25.198Z,13.84
2022-12-27T01:57:35.198Z,13.86
2022-12-27T01:57:45.195Z,13.84
2022-12-27T01:57:55.198Z,13.86
2022-12-27T01:58:05.200Z,13.84
2022-12-27T01:58:15.209Z,13.86
2022-12-27T01:58:25.202Z,13.86
2022-12-27T01:58:35.200Z,13.84
2022-12-27T01:58:45.208Z,13.84
2022-12-27T01:58:55.203Z,13.86
2022-12-27T01:59:05.202Z,13.84
2022-12-27T01:59:15.207Z,13.84
2022-12-27T01:59:25.203Z,13.84
2022-12-27T01:59:35.215Z,13.84
2022-12-27T01:59:45.210Z,13.84
2022-12-27T01:59:55.219Z,13.86
2022-12-27T02:00:05.211Z,13.86
2022-12-27T02:00:15.206Z,13.84
2022-12-27T02:00:25.211Z,13.86
2022-12-27T02:00:35.210Z,13.84
2022-12-27T02:00:45.389Z,13.84
2022-12-27T02:00:55.251Z,13.84
2022-12-27T02:01:05.252Z,13.84
2022-12-27T02:01:15.357Z,13.84
2022-12-27T02:01:25.376Z,13.84
2022-12-27T02:01:35.516Z,13.86
2022-12-27T02:01:45.301Z,13.84
2022-12-27T02:01:55.317Z,13.84
2022-12-27T02:02:05.431Z,13.86
2022-12-27T02:02:15.389Z,13.84
2022-12-27T02:02:25.315Z,13.84
2022-12-27T02:02:35.408Z,13.84
2022-12-27T02:02:45.332Z,13.86
2022-12-27T02:02:55.289Z,13.86
2022-12-27T02:03:05.348Z,13.86
2022-12-27T02:03:15.249Z,13.84
2022-12-27T02:03:25.223Z,13.84
2022-12-27T02:03:35.224Z,13.84
2022-12-27T02:03:45.233Z,13.86
2022-12-27T02:03:55.230Z,13.86
2022-12-27T02:04:05.228Z,13.84
2022-12-27T02:04:15.234Z,13.87
2022-12-27T02:04:25.230Z,13.86
2022-12-27T02:04:35.231Z,13.86
2022-12-27T02:04:45.233Z,13.86
2022-12-27T02:04:55.792Z,13.86
2022-12-27T02:05:05.247Z,13.86
2022-12-27T02:05:15.233Z,13.86
2022-12-27T02:05:25.243Z,13.86
2022-12-27T02:05:35.240Z,13.86
2022-12-27T02:05:45.244Z,13.86
2022-12-27T02:05:55.235Z,13.86
2022-12-27T02:06:05.242Z,13.86
2022-12-27T02:06:15.239Z,13.84
2022-12-27T02:06:25.265Z,13.86
2022-12-27T02:06:35.240Z,13.86
2022-12-27T02:06:45.252Z,13.86
2022-12-27T02:06:55.241Z,13.86
2022-12-27T02:07:05.239Z,13.84
2022-12-27T02:07:15.242Z,13.86
2022-12-27T02:07:25.244Z,13.84
2022-12-27T02:07:35.252Z,13.86
2022-12-27T02:07:45.251Z,13.87
2022-12-27T02:07:55.246Z,13.86
2022-12-27T02:08:05.260Z,13.84
2022-12-27T02:08:15.263Z,13.84
2022-12-27T02:08:25.250Z,13.86
2022-12-27T02:08:35.252Z,13.86
2022-12-27T02:08:45.261Z,13.86